sensor_id;sensor_type;location;lat;lon;timestamp;P1;durP1;ratioP1;P2;durP2;ratioP2
73571;SDS011;61854;48.510;-2.770;2023-07-13T00:02:14;13.23;;;2.10;;
73571;SDS011;61854;48.510;-2.770;2023-07-13T00:04:40;6.60;;;1.50;;
73571;SDS011;61854;48.510;-2.770;2023-07-13T00:07:06;10.48;;;2.10;;
73571;SDS011;61854;48.510;-2.770;2023-07-13T00:09:32;10.32;;;2.30;;
73571;SDS011;61854;48.510;-2.770;2023-07-13T00:11:58;9.10;;;2.40;;
73571;SDS011;61854;48.510;-2.770;2023-07-13T00:14:24;11.50;;;1.80;;
73571;SDS011;61854;48.510;-2.770;2023-07-13T00:16:51;8.30;;;2.03;;
73571;SDS011;61854;48.510;-2.770;2023-07-13T00:19:17;9.48;;;2.42;;
73571;SDS011;61854;48.510;-2.770;2023-07-13T00:21:43;7.95;;;1.90;;
73571;SDS011;61854;48.510;-2.770;2023-07-13T00:24:10;9.27;;;1.98;;
73571;SDS011;61854;48.510;-2.770;2023-07-13T00:26:38;8.18;;;1.95;;
73571;SDS011;61854;48.510;-2.770;2023-07-13T00:29:04;10.65;;;2.03;;
73571;SDS011;61854;48.510;-2.770;2023-07-13T00:31:33;7.60;;;1.85;;
73571;SDS011;61854;48.510;-2.770;2023-07-13T00:34:00;7.22;;;1.85;;
73571;SDS011;61854;48.510;-2.770;2023-07-13T00:36:26;9.43;;;1.92;;
73571;SDS011;61854;48.510;-2.770;2023-07-13T00:38:52;9.02;;;2.10;;
73571;SDS011;61854;48.510;-2.770;2023-07-13T00:41:18;14.55;;;2.58;;
73571;SDS011;61854;48.510;-2.770;2023-07-13T00:43:43;9.57;;;2.60;;
73571;SDS011;61854;48.510;-2.770;2023-07-13T00:46:52;8.98;;;2.08;;
73571;SDS011;61854;48.510;-2.770;2023-07-13T00:49:00;10.63;;;2.00;;
73571;SDS011;61854;48.510;-2.770;2023-07-13T00:52:04;7.25;;;1.98;;
73571;SDS011;61854;48.510;-2.770;2023-07-13T00:54:23;7.82;;;2.80;;
73571;SDS011;61854;48.510;-2.770;2023-07-13T00:56:53;15.43;;;4.97;;
73571;SDS011;61854;48.510;-2.770;2023-07-13T00:59:22;13.13;;;4.72;;
73571;SDS011;61854;48.510;-2.770;2023-07-13T01:01:49;11.75;;;4.90;;
73571;SDS011;61854;48.510;-2.770;2023-07-13T01:04:15;13.30;;;4.68;;
73571;SDS011;61854;48.510;-2.770;2023-07-13T01:06:41;14.55;;;4.35;;
73571;SDS011;61854;48.510;-2.770;2023-07-13T01:09:09;11.55;;;4.03;;
73571;SDS011;61854;48.510;-2.770;2023-07-13T01:11:35;11.85;;;4.30;;
73571;SDS011;61854;48.510;-2.770;2023-07-13T01:14:01;10.70;;;4.28;;
73571;SDS011;61854;48.510;-2.770;2023-07-13T01:16:29;13.82;;;4.20;;
73571;SDS011;61854;48.510;-2.770;2023-07-13T01:18:58;11.30;;;4.03;;
73571;SDS011;61854;48.510;-2.770;2023-07-13T01:21:26;16.63;;;3.75;;
73571;SDS011;61854;48.510;-2.770;2023-07-13T01:23:53;13.30;;;3.50;;
73571;SDS011;61854;48.510;-2.770;2023-07-13T01:26:18;11.60;;;3.72;;
73571;SDS011;61854;48.510;-2.770;2023-07-13T01:28:44;14.15;;;3.58;;
73571;SDS011;61854;48.510;-2.770;2023-07-13T01:31:09;12.10;;;3.40;;
73571;SDS011;61854;48.510;-2.770;2023-07-13T01:33:36;13.80;;;3.80;;
73571;SDS011;61854;48.510;-2.770;2023-07-13T01:36:04;11.82;;;3.83;;
73571;SDS011;61854;48.510;-2.770;2023-07-13T01:38:34;17.92;;;4.60;;
73571;SDS011;61854;48.510;-2.770;2023-07-13T01:41:01;12.82;;;4.70;;
73571;SDS011;61854;48.510;-2.770;2023-07-13T01:43:27;14.60;;;5.50;;
73571;SDS011;61854;48.510;-2.770;2023-07-13T01:45:52;15.45;;;5.63;;
73571;SDS011;61854;48.510;-2.770;2023-07-13T01:48:18;15.32;;;5.65;;
73571;SDS011;61854;48.510;-2.770;2023-07-13T01:50:45;10.60;;;4.85;;
73571;SDS011;61854;48.510;-2.770;2023-07-13T01:53:11;16.13;;;5.40;;
73571;SDS011;61854;48.510;-2.770;2023-07-13T01:55:36;13.15;;;3.90;;
73571;SDS011;61854;48.510;-2.770;2023-07-13T01:58:02;15.45;;;4.25;;
73571;SDS011;61854;48.510;-2.770;2023-07-13T02:00:29;15.68;;;3.92;;
73571;SDS011;61854;48.510;-2.770;2023-07-13T02:02:55;12.60;;;3.97;;
73571;SDS011;61854;48.510;-2.770;2023-07-13T02:05:21;14.23;;;4.20;;
73571;SDS011;61854;48.510;-2.770;2023-07-13T02:07:47;12.45;;;4.50;;
73571;SDS011;61854;48.510;-2.770;2023-07-13T02:10:13;12.40;;;4.30;;
73571;SDS011;61854;48.510;-2.770;2023-07-13T02:12:40;9.77;;;3.42;;
73571;SDS011;61854;48.510;-2.770;2023-07-13T02:15:06;11.60;;;2.97;;
73571;SDS011;61854;48.510;-2.770;2023-07-13T02:17:33;9.30;;;3.08;;
73571;SDS011;61854;48.510;-2.770;2023-07-13T02:20:00;10.00;;;2.67;;
73571;SDS011;61854;48.510;-2.770;2023-07-13T02:22:25;10.75;;;2.47;;
73571;SDS011;61854;48.510;-2.770;2023-07-13T02:24:51;9.00;;;2.72;;
73571;SDS011;61854;48.510;-2.770;2023-07-13T02:27:17;8.98;;;2.47;;
73571;SDS011;61854;48.510;-2.770;2023-07-13T02:29:43;9.23;;;2.15;;
73571;SDS011;61854;48.510;-2.770;2023-07-13T02:32:08;11.38;;;2.38;;
73571;SDS011;61854;48.510;-2.770;2023-07-13T02:34:35;11.45;;;2.53;;
73571;SDS011;61854;48.510;-2.770;2023-07-13T02:37:00;12.10;;;2.67;;
73571;SDS011;61854;48.510;-2.770;2023-07-13T02:39:26;8.65;;;2.55;;
73571;SDS011;61854;48.510;-2.770;2023-07-13T02:41:52;10.30;;;2.22;;
73571;SDS011;61854;48.510;-2.770;2023-07-13T02:44:17;12.77;;;2.80;;
73571;SDS011;61854;48.510;-2.770;2023-07-13T02:46:43;7.07;;;2.25;;
73571;SDS011;61854;48.510;-2.770;2023-07-13T02:49:09;11.07;;;2.28;;
73571;SDS011;61854;48.510;-2.770;2023-07-13T02:51:35;10.70;;;2.47;;
73571;SDS011;61854;48.510;-2.770;2023-07-13T02:54:01;12.40;;;2.38;;
73571;SDS011;61854;48.510;-2.770;2023-07-13T02:56:29;6.43;;;1.90;;
73571;SDS011;61854;48.510;-2.770;2023-07-13T02:58:56;8.73;;;2.30;;
73571;SDS011;61854;48.510;-2.770;2023-07-13T03:01:23;9.70;;;2.30;;
73571;SDS011;61854;48.510;-2.770;2023-07-13T03:03:49;12.07;;;2.03;;
73571;SDS011;61854;48.510;-2.770;2023-07-13T03:06:16;7.97;;;2.13;;
73571;SDS011;61854;48.510;-2.770;2023-07-13T03:08:42;8.43;;;2.17;;
73571;SDS011;61854;48.510;-2.770;2023-07-13T03:11:10;11.77;;;2.35;;
73571;SDS011;61854;48.510;-2.770;2023-07-13T03:13:39;13.55;;;2.70;;
73571;SDS011;61854;48.510;-2.770;2023-07-13T03:16:05;9.57;;;2.30;;
73571;SDS011;61854;48.510;-2.770;2023-07-13T03:18:32;9.93;;;2.10;;
73571;SDS011;61854;48.510;-2.770;2023-07-13T03:20:58;9.90;;;2.28;;
73571;SDS011;61854;48.510;-2.770;2023-07-13T03:23:23;9.23;;;2.60;;
73571;SDS011;61854;48.510;-2.770;2023-07-13T03:25:50;8.55;;;2.75;;
73571;SDS011;61854;48.510;-2.770;2023-07-13T03:28:25;12.63;;;2.15;;
73571;SDS011;61854;48.510;-2.770;2023-07-13T03:30:58;8.07;;;2.17;;
73571;SDS011;61854;48.510;-2.770;2023-07-13T03:33:25;8.43;;;2.10;;
73571;SDS011;61854;48.510;-2.770;2023-07-13T03:35:50;7.97;;;2.00;;
73571;SDS011;61854;48.510;-2.770;2023-07-13T03:38:16;8.75;;;2.05;;
73571;SDS011;61854;48.510;-2.770;2023-07-13T03:40:41;8.68;;;1.65;;
73571;SDS011;61854;48.510;-2.770;2023-07-13T03:43:07;10.52;;;2.10;;
73571;SDS011;61854;48.510;-2.770;2023-07-13T03:45:33;8.82;;;2.15;;
73571;SDS011;61854;48.510;-2.770;2023-07-13T03:47:58;9.88;;;2.20;;
73571;SDS011;61854;48.510;-2.770;2023-07-13T03:50:24;7.55;;;1.83;;
73571;SDS011;61854;48.510;-2.770;2023-07-13T03:52:49;7.65;;;1.88;;
73571;SDS011;61854;48.510;-2.770;2023-07-13T03:55:15;10.25;;;2.00;;
73571;SDS011;61854;48.510;-2.770;2023-07-13T03:57:41;8.52;;;2.03;;
73571;SDS011;61854;48.510;-2.770;2023-07-13T04:00:07;9.50;;;2.38;;
73571;SDS011;61854;48.510;-2.770;2023-07-13T04:02:36;11.77;;;2.40;;
73571;SDS011;61854;48.510;-2.770;2023-07-13T04:05:02;11.68;;;2.17;;
73571;SDS011;61854;48.510;-2.770;2023-07-13T04:07:28;8.05;;;2.05;;
73571;SDS011;61854;48.510;-2.770;2023-07-13T04:09:53;13.50;;;2.55;;
73571;SDS011;61854;48.510;-2.770;2023-07-13T04:12:19;11.75;;;2.40;;
73571;SDS011;61854;48.510;-2.770;2023-07-13T04:14:45;11.65;;;2.60;;
73571;SDS011;61854;48.510;-2.770;2023-07-13T04:17:11;10.68;;;2.42;;
73571;SDS011;61854;48.510;-2.770;2023-07-13T04:19:36;9.43;;;2.40;;
73571;SDS011;61854;48.510;-2.770;2023-07-13T04:22:02;14.63;;;2.55;;
73571;SDS011;61854;48.510;-2.770;2023-07-13T04:24:28;7.70;;;2.03;;
73571;SDS011;61854;48.510;-2.770;2023-07-13T04:26:54;11.07;;;2.58;;
73571;SDS011;61854;48.510;-2.770;2023-07-13T04:29:19;9.40;;;2.22;;
73571;SDS011;61854;48.510;-2.770;2023-07-13T04:31:45;13.30;;;2.40;;
73571;SDS011;61854;48.510;-2.770;2023-07-13T04:34:11;9.50;;;2.40;;
73571;SDS011;61854;48.510;-2.770;2023-07-13T04:36:37;9.63;;;2.40;;
73571;SDS011;61854;48.510;-2.770;2023-07-13T04:39:03;10.43;;;2.30;;
73571;SDS011;61854;48.510;-2.770;2023-07-13T04:41:28;11.30;;;2.30;;
73571;SDS011;61854;48.510;-2.770;2023-07-13T04:43:54;10.48;;;2.05;;
73571;SDS011;61854;48.510;-2.770;2023-07-13T04:46:20;9.35;;;2.40;;
73571;SDS011;61854;48.510;-2.770;2023-07-13T04:48:45;6.63;;;2.33;;
73571;SDS011;61854;48.510;-2.770;2023-07-13T04:51:12;10.07;;;2.63;;
73571;SDS011;61854;48.510;-2.770;2023-07-13T04:53:37;5.38;;;1.95;;
73571;SDS011;61854;48.510;-2.770;2023-07-13T04:56:03;5.82;;;2.05;;
73571;SDS011;61854;48.510;-2.770;2023-07-13T04:58:29;13.48;;;2.83;;
73571;SDS011;61854;48.510;-2.770;2023-07-13T05:00:59;8.70;;;2.55;;
73571;SDS011;61854;48.510;-2.770;2023-07-13T05:03:30;9.07;;;2.25;;
73571;SDS011;61854;48.510;-2.770;2023-07-13T05:06:00;12.48;;;2.40;;
73571;SDS011;61854;48.510;-2.770;2023-07-13T05:08:27;9.40;;;2.20;;
73571;SDS011;61854;48.510;-2.770;2023-07-13T05:10:53;12.00;;;3.05;;
73571;SDS011;61854;48.510;-2.770;2023-07-13T05:13:19;9.75;;;2.45;;
73571;SDS011;61854;48.510;-2.770;2023-07-13T05:15:46;9.98;;;2.53;;
73571;SDS011;61854;48.510;-2.770;2023-07-13T05:18:12;8.48;;;2.40;;
73571;SDS011;61854;48.510;-2.770;2023-07-13T05:20:38;10.70;;;2.70;;
73571;SDS011;61854;48.510;-2.770;2023-07-13T05:23:04;7.40;;;2.00;;
73571;SDS011;61854;48.510;-2.770;2023-07-13T05:25:30;6.82;;;2.05;;
73571;SDS011;61854;48.510;-2.770;2023-07-13T05:27:56;11.50;;;2.20;;
73571;SDS011;61854;48.510;-2.770;2023-07-13T05:30:21;10.80;;;2.75;;
73571;SDS011;61854;48.510;-2.770;2023-07-13T05:32:47;13.48;;;2.30;;
73571;SDS011;61854;48.510;-2.770;2023-07-13T05:35:12;8.73;;;2.70;;
73571;SDS011;61854;48.510;-2.770;2023-07-13T05:37:38;10.27;;;2.10;;
73571;SDS011;61854;48.510;-2.770;2023-07-13T05:40:04;9.75;;;2.53;;
73571;SDS011;61854;48.510;-2.770;2023-07-13T05:42:30;6.10;;;2.10;;
73571;SDS011;61854;48.510;-2.770;2023-07-13T05:44:58;11.80;;;2.10;;
73571;SDS011;61854;48.510;-2.770;2023-07-13T05:47:24;8.98;;;2.22;;
73571;SDS011;61854;48.510;-2.770;2023-07-13T05:49:50;10.40;;;2.10;;
73571;SDS011;61854;48.510;-2.770;2023-07-13T05:52:15;12.45;;;2.75;;
73571;SDS011;61854;48.510;-2.770;2023-07-13T05:54:41;7.63;;;2.35;;
73571;SDS011;61854;48.510;-2.770;2023-07-13T05:57:07;11.35;;;2.42;;
73571;SDS011;61854;48.510;-2.770;2023-07-13T05:59:32;6.80;;;1.77;;
73571;SDS011;61854;48.510;-2.770;2023-07-13T06:01:58;12.48;;;2.28;;
73571;SDS011;61854;48.510;-2.770;2023-07-13T06:04:23;11.45;;;2.20;;
73571;SDS011;61854;48.510;-2.770;2023-07-13T06:06:49;6.80;;;2.03;;
73571;SDS011;61854;48.510;-2.770;2023-07-13T06:09:15;7.35;;;2.05;;
73571;SDS011;61854;48.510;-2.770;2023-07-13T06:11:40;9.75;;;2.40;;
73571;SDS011;61854;48.510;-2.770;2023-07-13T06:14:07;7.07;;;2.38;;
73571;SDS011;61854;48.510;-2.770;2023-07-13T06:16:33;12.77;;;2.42;;
73571;SDS011;61854;48.510;-2.770;2023-07-13T06:18:58;9.80;;;2.25;;
73571;SDS011;61854;48.510;-2.770;2023-07-13T06:21:24;9.07;;;2.20;;
73571;SDS011;61854;48.510;-2.770;2023-07-13T06:23:50;10.73;;;2.38;;
73571;SDS011;61854;48.510;-2.770;2023-07-13T06:26:18;9.82;;;2.25;;
73571;SDS011;61854;48.510;-2.770;2023-07-13T06:28:45;11.17;;;2.30;;
73571;SDS011;61854;48.510;-2.770;2023-07-13T06:31:12;10.25;;;2.10;;
73571;SDS011;61854;48.510;-2.770;2023-07-13T06:33:38;9.82;;;2.42;;
73571;SDS011;61854;48.510;-2.770;2023-07-13T06:36:10;13.93;;;2.30;;
73571;SDS011;61854;48.510;-2.770;2023-07-13T06:38:39;11.10;;;2.30;;
73571;SDS011;61854;48.510;-2.770;2023-07-13T06:41:05;8.20;;;1.80;;
73571;SDS011;61854;48.510;-2.770;2023-07-13T06:43:32;7.95;;;2.17;;
73571;SDS011;61854;48.510;-2.770;2023-07-13T06:45:58;7.00;;;2.10;;
73571;SDS011;61854;48.510;-2.770;2023-07-13T06:48:24;10.07;;;2.05;;
73571;SDS011;61854;48.510;-2.770;2023-07-13T06:50:50;7.43;;;1.98;;
73571;SDS011;61854;48.510;-2.770;2023-07-13T06:53:18;11.47;;;2.60;;
73571;SDS011;61854;48.510;-2.770;2023-07-13T06:55:45;7.28;;;2.25;;
73571;SDS011;61854;48.510;-2.770;2023-07-13T06:58:12;8.32;;;2.00;;
73571;SDS011;61854;48.510;-2.770;2023-07-13T07:00:41;8.77;;;2.60;;
73571;SDS011;61854;48.510;-2.770;2023-07-13T07:03:07;9.50;;;2.35;;
73571;SDS011;61854;48.510;-2.770;2023-07-13T07:05:33;10.02;;;2.50;;
73571;SDS011;61854;48.510;-2.770;2023-07-13T07:07:58;6.90;;;2.10;;
73571;SDS011;61854;48.510;-2.770;2023-07-13T07:10:25;12.35;;;2.40;;
73571;SDS011;61854;48.510;-2.770;2023-07-13T07:12:51;10.77;;;2.25;;
73571;SDS011;61854;48.510;-2.770;2023-07-13T07:15:17;13.05;;;2.63;;
73571;SDS011;61854;48.510;-2.770;2023-07-13T07:17:44;9.80;;;2.78;;
73571;SDS011;61854;48.510;-2.770;2023-07-13T07:20:10;10.60;;;2.40;;
73571;SDS011;61854;48.510;-2.770;2023-07-13T07:22:38;10.98;;;2.50;;
73571;SDS011;61854;48.510;-2.770;2023-07-13T07:25:04;7.15;;;2.08;;
73571;SDS011;61854;48.510;-2.770;2023-07-13T07:27:30;11.07;;;2.78;;
73571;SDS011;61854;48.510;-2.770;2023-07-13T07:29:55;5.35;;;1.65;;
73571;SDS011;61854;48.510;-2.770;2023-07-13T07:32:22;7.28;;;2.30;;
73571;SDS011;61854;48.510;-2.770;2023-07-13T07:34:48;12.20;;;2.72;;
73571;SDS011;61854;48.510;-2.770;2023-07-13T07:37:13;12.25;;;2.60;;
73571;SDS011;61854;48.510;-2.770;2023-07-13T07:39:39;9.70;;;2.25;;
73571;SDS011;61854;48.510;-2.770;2023-07-13T07:42:05;13.70;;;2.90;;
73571;SDS011;61854;48.510;-2.770;2023-07-13T07:44:31;11.80;;;2.13;;
73571;SDS011;61854;48.510;-2.770;2023-07-13T07:46:58;9.73;;;2.28;;
73571;SDS011;61854;48.510;-2.770;2023-07-13T07:49:24;11.85;;;2.35;;
73571;SDS011;61854;48.510;-2.770;2023-07-13T07:51:50;8.20;;;2.08;;
73571;SDS011;61854;48.510;-2.770;2023-07-13T07:54:16;9.15;;;2.35;;
73571;SDS011;61854;48.510;-2.770;2023-07-13T07:56:42;9.20;;;1.95;;
73571;SDS011;61854;48.510;-2.770;2023-07-13T07:59:07;10.70;;;2.67;;
73571;SDS011;61854;48.510;-2.770;2023-07-13T08:01:33;5.85;;;1.67;;
73571;SDS011;61854;48.510;-2.770;2023-07-13T08:03:58;8.63;;;2.22;;
73571;SDS011;61854;48.510;-2.770;2023-07-13T08:06:24;8.15;;;1.88;;
73571;SDS011;61854;48.510;-2.770;2023-07-13T08:08:50;12.20;;;2.80;;
73571;SDS011;61854;48.510;-2.770;2023-07-13T08:11:16;7.90;;;2.30;;
73571;SDS011;61854;48.510;-2.770;2023-07-13T08:13:42;10.43;;;2.53;;
73571;SDS011;61854;48.510;-2.770;2023-07-13T08:16:08;8.50;;;2.22;;
73571;SDS011;61854;48.510;-2.770;2023-07-13T08:18:33;9.23;;;2.05;;
73571;SDS011;61854;48.510;-2.770;2023-07-13T08:21:02;5.95;;;2.30;;
73571;SDS011;61854;48.510;-2.770;2023-07-13T08:23:32;15.25;;;2.35;;
73571;SDS011;61854;48.510;-2.770;2023-07-13T08:25:58;12.48;;;2.97;;
73571;SDS011;61854;48.510;-2.770;2023-07-13T08:28:26;7.25;;;2.28;;
73571;SDS011;61854;48.510;-2.770;2023-07-13T08:30:52;6.85;;;1.90;;
73571;SDS011;61854;48.510;-2.770;2023-07-13T08:33:19;6.80;;;1.95;;
73571;SDS011;61854;48.510;-2.770;2023-07-13T08:35:46;11.43;;;2.17;;
73571;SDS011;61854;48.510;-2.770;2023-07-13T08:38:15;7.53;;;1.92;;
73571;SDS011;61854;48.510;-2.770;2023-07-13T08:40:42;6.95;;;1.77;;
73571;SDS011;61854;48.510;-2.770;2023-07-13T08:43:11;7.10;;;2.00;;
73571;SDS011;61854;48.510;-2.770;2023-07-13T08:46:01;8.02;;;1.88;;
73571;SDS011;61854;48.510;-2.770;2023-07-13T08:48:58;4.97;;;1.75;;
73571;SDS011;61854;48.510;-2.770;2023-07-13T08:51:35;7.85;;;1.90;;
73571;SDS011;61854;48.510;-2.770;2023-07-13T08:54:54;8.60;;;2.28;;
73571;SDS011;61854;48.510;-2.770;2023-07-13T08:57:21;6.53;;;1.80;;
73571;SDS011;61854;48.510;-2.770;2023-07-13T08:59:55;6.18;;;2.22;;
73571;SDS011;61854;48.510;-2.770;2023-07-13T09:02:25;6.10;;;1.90;;
73571;SDS011;61854;48.510;-2.770;2023-07-13T09:05:17;6.18;;;2.13;;
73571;SDS011;61854;48.510;-2.770;2023-07-13T09:07:58;6.57;;;1.92;;
73571;SDS011;61854;48.510;-2.770;2023-07-13T09:10:49;7.53;;;2.42;;
73571;SDS011;61854;48.510;-2.770;2023-07-13T09:16:03;7.68;;;2.03;;
73571;SDS011;61854;48.510;-2.770;2023-07-13T09:18:33;4.80;;;2.05;;
73571;SDS011;61854;48.510;-2.770;2023-07-13T09:21:03;7.50;;;2.33;;
73571;SDS011;61854;48.510;-2.770;2023-07-13T09:23:36;6.18;;;2.03;;
73571;SDS011;61854;48.510;-2.770;2023-07-13T09:26:13;10.10;;;3.05;;
73571;SDS011;61854;48.510;-2.770;2023-07-13T09:28:43;10.20;;;2.83;;
73571;SDS011;61854;48.510;-2.770;2023-07-13T09:33:39;9.00;;;2.35;;
73571;SDS011;61854;48.510;-2.770;2023-07-13T09:36:16;7.05;;;2.60;;
73571;SDS011;61854;48.510;-2.770;2023-07-13T09:38:49;7.65;;;2.40;;
73571;SDS011;61854;48.510;-2.770;2023-07-13T09:44:10;5.93;;;1.90;;
73571;SDS011;61854;48.510;-2.770;2023-07-13T09:46:38;5.63;;;1.80;;
73571;SDS011;61854;48.510;-2.770;2023-07-13T09:49:09;5.03;;;1.70;;
73571;SDS011;61854;48.510;-2.770;2023-07-13T09:51:36;3.13;;;1.13;;
73571;SDS011;61854;48.510;-2.770;2023-07-13T09:54:27;3.78;;;1.73;;
73571;SDS011;61854;48.510;-2.770;2023-07-13T09:56:57;5.28;;;1.70;;
73571;SDS011;61854;48.510;-2.770;2023-07-13T09:59:27;3.33;;;1.55;;
73571;SDS011;61854;48.510;-2.770;2023-07-13T10:02:01;6.43;;;2.10;;
73571;SDS011;61854;48.510;-2.770;2023-07-13T10:04:31;4.75;;;1.60;;
73571;SDS011;61854;48.510;-2.770;2023-07-13T10:07:08;5.93;;;2.50;;
73571;SDS011;61854;48.510;-2.770;2023-07-13T10:09:38;7.00;;;1.70;;
73571;SDS011;61854;48.510;-2.770;2023-07-13T10:12:04;6.97;;;1.90;;
73571;SDS011;61854;48.510;-2.770;2023-07-13T10:14:38;4.13;;;1.73;;
73571;SDS011;61854;48.510;-2.770;2023-07-13T10:17:08;3.50;;;1.70;;
73571;SDS011;61854;48.510;-2.770;2023-07-13T10:19:37;6.10;;;1.63;;
73571;SDS011;61854;48.510;-2.770;2023-07-13T10:22:14;8.07;;;2.08;;
73571;SDS011;61854;48.510;-2.770;2023-07-13T10:24:52;7.28;;;1.90;;
73571;SDS011;61854;48.510;-2.770;2023-07-13T10:27:21;3.30;;;1.40;;
73571;SDS011;61854;48.510;-2.770;2023-07-13T10:32:48;4.68;;;1.50;;
73571;SDS011;61854;48.510;-2.770;2023-07-13T10:35:17;6.25;;;2.10;;
73571;SDS011;61854;48.510;-2.770;2023-07-13T10:37:46;9.70;;;2.30;;
73571;SDS011;61854;48.510;-2.770;2023-07-13T10:43:32;6.78;;;1.83;;
73571;SDS011;61854;48.510;-2.770;2023-07-13T10:46:03;7.18;;;2.10;;
73571;SDS011;61854;48.510;-2.770;2023-07-13T10:48:35;5.65;;;2.00;;
73571;SDS011;61854;48.510;-2.770;2023-07-13T10:51:03;4.55;;;1.75;;
73571;SDS011;61854;48.510;-2.770;2023-07-13T10:53:33;5.85;;;1.98;;
73571;SDS011;61854;48.510;-2.770;2023-07-13T10:56:03;5.43;;;1.92;;
73571;SDS011;61854;48.510;-2.770;2023-07-13T10:58:39;9.82;;;1.75;;
73571;SDS011;61854;48.510;-2.770;2023-07-13T11:04:00;5.00;;;1.60;;
73571;SDS011;61854;48.510;-2.770;2023-07-13T11:18:47;5.78;;;1.75;;
73571;SDS011;61854;48.510;-2.770;2023-07-13T11:21:18;4.00;;;1.70;;
73571;SDS011;61854;48.510;-2.770;2023-07-13T11:23:55;5.22;;;1.98;;
73571;SDS011;61854;48.510;-2.770;2023-07-13T11:26:39;4.32;;;1.50;;
73571;SDS011;61854;48.510;-2.770;2023-07-13T11:32:01;5.53;;;1.67;;
73571;SDS011;61854;48.510;-2.770;2023-07-13T11:34:47;4.73;;;1.57;;
73571;SDS011;61854;48.510;-2.770;2023-07-13T11:37:13;5.13;;;1.65;;
73571;SDS011;61854;48.510;-2.770;2023-07-13T11:39:42;5.60;;;1.60;;
73571;SDS011;61854;48.510;-2.770;2023-07-13T11:42:15;4.85;;;1.77;;
73571;SDS011;61854;48.510;-2.770;2023-07-13T11:44:42;3.28;;;1.35;;
73571;SDS011;61854;48.510;-2.770;2023-07-13T11:47:11;4.68;;;1.58;;
73571;SDS011;61854;48.510;-2.770;2023-07-13T11:49:43;3.83;;;1.40;;
73571;SDS011;61854;48.510;-2.770;2023-07-13T11:52:20;5.55;;;1.38;;
73571;SDS011;61854;48.510;-2.770;2023-07-13T11:54:49;4.18;;;1.30;;
73571;SDS011;61854;48.510;-2.770;2023-07-13T11:57:30;4.97;;;1.30;;
73571;SDS011;61854;48.510;-2.770;2023-07-13T12:02:36;6.03;;;1.52;;
73571;SDS011;61854;48.510;-2.770;2023-07-13T12:05:06;7.85;;;1.50;;
73571;SDS011;61854;48.510;-2.770;2023-07-13T12:07:37;4.47;;;1.33;;
73571;SDS011;61854;48.510;-2.770;2023-07-13T12:12:58;2.58;;;1.27;;
73571;SDS011;61854;48.510;-2.770;2023-07-13T12:15:40;5.50;;;1.75;;
73571;SDS011;61854;48.510;-2.770;2023-07-13T12:18:15;4.15;;;1.50;;
73571;SDS011;61854;48.510;-2.770;2023-07-13T12:20:44;4.43;;;1.80;;
73571;SDS011;61854;48.510;-2.770;2023-07-13T12:26:01;5.13;;;1.65;;
73571;SDS011;61854;48.510;-2.770;2023-07-13T12:31:05;4.65;;;1.83;;
73571;SDS011;61854;48.510;-2.770;2023-07-13T12:33:44;5.30;;;2.00;;
73571;SDS011;61854;48.510;-2.770;2023-07-13T12:36:09;9.02;;;2.55;;
73571;SDS011;61854;48.510;-2.770;2023-07-13T12:38:37;3.67;;;1.73;;
73571;SDS011;61854;48.510;-2.770;2023-07-13T12:41:03;2.38;;;1.58;;
73571;SDS011;61854;48.510;-2.770;2023-07-13T12:43:29;4.88;;;1.63;;
73571;SDS011;61854;48.510;-2.770;2023-07-13T12:46:14;3.83;;;1.70;;
73571;SDS011;61854;48.510;-2.770;2023-07-13T12:48:48;3.40;;;1.48;;
73571;SDS011;61854;48.510;-2.770;2023-07-13T12:51:16;6.88;;;1.60;;
73571;SDS011;61854;48.510;-2.770;2023-07-13T12:53:55;3.42;;;1.40;;
73571;SDS011;61854;48.510;-2.770;2023-07-13T12:56:30;4.22;;;1.55;;
73571;SDS011;61854;48.510;-2.770;2023-07-13T12:59:03;3.70;;;1.40;;
73571;SDS011;61854;48.510;-2.770;2023-07-13T13:01:32;4.30;;;1.30;;
73571;SDS011;61854;48.510;-2.770;2023-07-13T13:04:02;3.65;;;1.42;;
73571;SDS011;61854;48.510;-2.770;2023-07-13T13:06:34;3.70;;;1.67;;
73571;SDS011;61854;48.510;-2.770;2023-07-13T13:09:01;4.67;;;1.53;;
73571;SDS011;61854;48.510;-2.770;2023-07-13T13:11:29;2.85;;;1.48;;
73571;SDS011;61854;48.510;-2.770;2023-07-13T13:13:56;3.92;;;1.70;;
73571;SDS011;61854;48.510;-2.770;2023-07-13T13:16:23;3.90;;;1.58;;
73571;SDS011;61854;48.510;-2.770;2023-07-13T13:19:02;3.40;;;1.48;;
73571;SDS011;61854;48.510;-2.770;2023-07-13T13:21:41;3.17;;;1.40;;
73571;SDS011;61854;48.510;-2.770;2023-07-13T13:24:12;3.90;;;1.60;;
73571;SDS011;61854;48.510;-2.770;2023-07-13T13:26:39;3.80;;;1.40;;
73571;SDS011;61854;48.510;-2.770;2023-07-13T13:29:27;4.75;;;1.70;;
73571;SDS011;61854;48.510;-2.770;2023-07-13T13:31:53;4.88;;;1.48;;
73571;SDS011;61854;48.510;-2.770;2023-07-13T13:34:20;3.72;;;1.58;;
73571;SDS011;61854;48.510;-2.770;2023-07-13T13:36:49;5.03;;;1.95;;
73571;SDS011;61854;48.510;-2.770;2023-07-13T13:39:24;4.23;;;1.60;;
73571;SDS011;61854;48.510;-2.770;2023-07-13T13:41:52;3.92;;;1.60;;
73571;SDS011;61854;48.510;-2.770;2023-07-13T13:44:19;2.13;;;1.30;;
73571;SDS011;61854;48.510;-2.770;2023-07-13T13:46:46;4.27;;;1.30;;
73571;SDS011;61854;48.510;-2.770;2023-07-13T13:49:16;3.65;;;1.40;;
73571;SDS011;61854;48.510;-2.770;2023-07-13T13:51:45;3.75;;;1.40;;
73571;SDS011;61854;48.510;-2.770;2023-07-13T13:54:15;4.45;;;1.65;;
73571;SDS011;61854;48.510;-2.770;2023-07-13T13:56:42;3.47;;;1.30;;
73571;SDS011;61854;48.510;-2.770;2023-07-13T13:59:09;4.43;;;1.77;;
73571;SDS011;61854;48.510;-2.770;2023-07-13T14:01:35;5.47;;;1.60;;
73571;SDS011;61854;48.510;-2.770;2023-07-13T14:04:01;3.92;;;1.70;;
73571;SDS011;61854;48.510;-2.770;2023-07-13T14:06:27;4.07;;;1.52;;
73571;SDS011;61854;48.510;-2.770;2023-07-13T14:08:53;6.22;;;1.50;;
73571;SDS011;61854;48.510;-2.770;2023-07-13T14:11:20;4.10;;;1.60;;
73571;SDS011;61854;48.510;-2.770;2023-07-13T14:13:50;3.63;;;1.67;;
73571;SDS011;61854;48.510;-2.770;2023-07-13T14:16:20;3.85;;;1.50;;
73571;SDS011;61854;48.510;-2.770;2023-07-13T14:18:48;4.93;;;1.92;;
73571;SDS011;61854;48.510;-2.770;2023-07-13T14:21:18;4.50;;;1.77;;
73571;SDS011;61854;48.510;-2.770;2023-07-13T14:23:46;4.63;;;1.67;;
73571;SDS011;61854;48.510;-2.770;2023-07-13T14:26:14;4.68;;;1.42;;
73571;SDS011;61854;48.510;-2.770;2023-07-13T14:28:42;4.90;;;1.77;;
73571;SDS011;61854;48.510;-2.770;2023-07-13T14:31:10;4.85;;;1.63;;
73571;SDS011;61854;48.510;-2.770;2023-07-13T14:33:40;3.35;;;1.27;;
73571;SDS011;61854;48.510;-2.770;2023-07-13T14:36:16;5.30;;;1.42;;
73571;SDS011;61854;48.510;-2.770;2023-07-13T14:39:04;5.53;;;1.42;;
73571;SDS011;61854;48.510;-2.770;2023-07-13T14:41:42;3.65;;;1.33;;
73571;SDS011;61854;48.510;-2.770;2023-07-13T14:44:10;4.53;;;1.30;;
73571;SDS011;61854;48.510;-2.770;2023-07-13T14:46:40;4.05;;;1.40;;
73571;SDS011;61854;48.510;-2.770;2023-07-13T14:51:48;6.15;;;1.67;;
73571;SDS011;61854;48.510;-2.770;2023-07-13T14:54:13;6.00;;;1.40;;
73571;SDS011;61854;48.510;-2.770;2023-07-13T14:56:39;4.95;;;1.60;;
73571;SDS011;61854;48.510;-2.770;2023-07-13T14:59:05;3.58;;;1.50;;
73571;SDS011;61854;48.510;-2.770;2023-07-13T15:01:32;5.00;;;1.70;;
73571;SDS011;61854;48.510;-2.770;2023-07-13T15:03:59;10.32;;;2.60;;
73571;SDS011;61854;48.510;-2.770;2023-07-13T15:06:25;8.88;;;2.47;;
73571;SDS011;61854;48.510;-2.770;2023-07-13T15:08:51;12.85;;;2.63;;
73571;SDS011;61854;48.510;-2.770;2023-07-13T15:11:16;12.00;;;2.40;;
73571;SDS011;61854;48.510;-2.770;2023-07-13T15:13:42;7.30;;;2.50;;
73571;SDS011;61854;48.510;-2.770;2023-07-13T15:16:15;8.38;;;2.33;;
73571;SDS011;61854;48.510;-2.770;2023-07-13T15:18:43;9.15;;;2.70;;
73571;SDS011;61854;48.510;-2.770;2023-07-13T15:21:11;13.95;;;2.85;;
73571;SDS011;61854;48.510;-2.770;2023-07-13T15:23:39;9.15;;;2.88;;
73571;SDS011;61854;48.510;-2.770;2023-07-13T15:26:08;7.65;;;2.50;;